Time;durP1;ratioP1;P1;durP2;ratioP2;P2;SDS_P1;SDS_P2;PMS_P1;PMS_P2;Temp;Humidity;BMP_temperature;BMP_pressure;BME280_temperature;BME280_humidity;BME280_pressure;Samples;Min_cycle;Max_cycle;Signal;HPM_P1;HPM_P2
2022/03/25 00:00:10;;;;;;;22.00;12.07;;;;;;;-0.63;100.00;101995.66;4980985;28;20229;-68
2022/03/25 00:02:40;;;;;;;23.60;12.77;;;;;;;-0.42;100.00;102000.78;4984342;28;21158;-68
2022/03/25 00:05:07;;;;;;;20.33;11.30;;;;;;;-0.48;100.00;101995.38;4982204;28;20198;-68
2022/03/25 00:07:34;;;;;;;26.97;13.03;;;;;;;-0.65;100.00;102002.41;4985006;28;20205;-68
2022/03/25 00:10:03;;;;;;;23.57;13.17;;;;;;;-0.59;100.00;101997.50;4980716;28;20586;-68
2022/03/25 00:12:30;;;;;;;22.33;13.10;;;;;;;-0.54;100.00;102000.28;4984995;28;20471;-67
2022/03/25 00:14:56;;;;;;;26.67;12.67;;;;;;;-0.55;100.00;101995.94;4982633;28;20952;-68
2022/03/25 00:17:24;;;;;;;24.40;13.23;;;;;;;-0.75;100.00;102001.94;4982965;28;20468;-68
2022/03/25 00:19:50;;;;;;;26.30;12.73;;;;;;;-0.65;100.00;102002.41;4979407;28;20511;-68
2022/03/25 00:22:17;;;;;;;22.33;12.40;;;;;;;-0.59;100.00;102001.75;4980424;28;20458;-68
2022/03/25 00:24:43;;;;;;;25.17;13.67;;;;;;;-0.80;100.00;102005.16;4979247;28;20475;-68
2022/03/25 00:27:10;;;;;;;27.20;11.97;;;;;;;-0.70;100.00;102008.09;4983501;28;20818;-68
2022/03/25 00:29:36;;;;;;;25.43;12.67;;;;;;;-0.74;100.00;102001.97;4979904;28;21017;-68
2022/03/25 00:32:03;;;;;;;25.93;12.77;;;;;;;-0.82;100.00;102005.94;4983532;28;20465;-68
2022/03/25 00:34:31;;;;;;;22.73;13.30;;;;;;;-0.76;100.00;101995.94;4963595;28;20491;-68
2022/03/25 00:36:58;;;;;;;22.73;12.63;;;;;;;-0.87;100.00;102002.28;4969719;28;20505;-68
2022/03/25 00:39:24;;;;;;;24.73;13.17;;;;;;;-0.81;100.00;102003.44;4982111;28;20495;-68
2022/03/25 00:41:51;;;;;;;21.80;12.60;;;;;;;-0.97;100.00;102003.56;4964743;28;20468;-69
2022/03/25 00:44:18;;;;;;;23.83;13.10;;;;;;;-0.88;100.00;101995.41;4961863;28;20559;-68
2022/03/25 00:46:44;;;;;;;23.77;13.40;;;;;;;-0.93;100.00;101990.13;4983135;28;20469;-68
2022/03/25 00:49:12;;;;;;;20.57;12.57;;;;;;;-1.12;100.00;101992.69;4961558;28;20578;-68
2022/03/25 00:51:40;;;;;;;28.03;13.33;;;;;;;-1.23;100.00;101995.66;4979272;28;20460;-68
2022/03/25 00:54:08;;;;;;;26.63;12.27;;;;;;;-1.29;100.00;101991.94;4982085;28;21154;-68
2022/03/25 00:56:35;;;;;;;21.83;12.57;;;;;;;-1.12;100.00;101988.44;4967560;28;20474;-68
2022/03/25 00:59:01;;;;;;;22.60;11.77;;;;;;;-1.09;100.00;101993.69;4964971;28;20487;-69
2022/03/25 01:01:27;;;;;;;26.90;13.13;;;;;;;-1.10;100.00;101991.06;4978399;28;20466;-68
2022/03/25 01:03:54;;;;;;;23.90;12.77;;;;;;;-1.10;100.00;101985.94;4984526;28;20488;-68
2022/03/25 01:06:21;;;;;;;26.80;13.47;;;;;;;-1.21;100.00;101983.78;4981626;28;20745;-68
2022/03/25 01:08:49;;;;;;;21.47;12.13;;;;;;;-1.22;100.00;101976.03;4982674;28;20499;-68
2022/03/25 01:11:15;;;;;;;23.13;12.50;;;;;;;-1.25;100.00;101984.47;4963741;28;20470;-68
2022/03/25 01:13:41;;;;;;;19.40;12.07;;;;;;;-1.30;100.00;101973.16;4979969;28;20992;-68
2022/03/25 01:16:08;;;;;;;22.60;12.37;;;;;;;-1.46;100.00;101986.06;4962683;28;20461;-67
2022/03/25 01:18:37;;;;;;;23.47;12.43;;;;;;;-1.40;100.00;101968.44;4963748;28;20484;-67
2022/03/25 01:21:03;;;;;;;23.13;12.53;;;;;;;-1.55;100.00;101971.16;4980528;28;20462;-68
2022/03/25 01:23:30;;;;;;;24.13;11.60;;;;;;;-1.59;100.00;101977.84;4981930;28;20819;-69
2022/03/25 01:25:58;;;;;;;20.93;11.93;;;;;;;-1.59;100.00;101977.84;4978880;28;20477;-68
2022/03/25 01:28:25;;;;;;;24.23;12.30;;;;;;;-1.66;100.00;101978.38;4978167;28;20487;-67
2022/03/25 01:30:51;;;;;;;25.27;12.70;;;;;;;-1.61;100.00;101963.25;4978918;28;20484;-68
2022/03/25 01:33:19;;;;;;;24.20;13.10;;;;;;;-1.64;100.00;101970.78;4966302;28;20474;-68
2022/03/25 01:35:47;;;;;;;20.27;11.80;;;;;;;-1.78;100.00;101959.91;4979808;28;20473;-68
2022/03/25 01:38:14;;;;;;;25.63;12.33;;;;;;;-1.88;100.00;101968.84;4965079;28;20530;-68
2022/03/25 01:40:40;;;;;;;27.87;11.87;;;;;;;-1.85;100.00;101970.66;4978329;28;20478;-67
2022/03/25 01:43:08;;;;;;;22.07;12.67;;;;;;;-1.78;100.00;101967.56;4983004;28;20911;-69
2022/03/25 01:45:37;;;;;;;23.23;12.77;;;;;;;-1.77;100.00;101970.22;4963846;28;20505;-68
2022/03/25 01:48:08;;;;;;;25.43;12.73;;;;;;;-1.91;100.00;101961.03;4980596;28;20534;-68
2022/03/25 01:50:34;;;;;;;25.13;13.43;;;;;;;-1.90;100.00;101957.66;4978414;28;20462;-68
2022/03/25 01:53:01;;;;;;;22.13;12.87;;;;;;;-2.01;100.00;101964.84;4980455;28;20458;-68
2022/03/25 01:55:28;;;;;;;26.50;13.53;;;;;;;-1.91;100.00;101964.47;4977010;28;20467;-68
2022/03/25 01:57:56;;;;;;;23.47;13.43;;;;;;;-1.97;100.00;101965.84;4963800;28;20474;-68
2022/03/25 02:00:28;;;;;;;25.50;13.17;;;;;;;-1.86;100.00;101967.25;4977067;28;20470;-68
2022/03/25 02:02:54;;;;;;;23.07;12.87;;;;;;;-1.83;100.00;101966.50;4979849;28;20485;-68
2022/03/25 02:05:21;;;;;;;23.00;12.47;;;;;;;-2.06;100.00;101967.97;4962739;28;20847;-68
2022/03/25 02:07:48;;;;;;;23.73;12.87;;;;;;;-2.11;100.00;101961.00;4982329;28;20470;-68
2022/03/25 02:10:18;;;;;;;24.30;12.27;;;;;;;-2.19;100.00;101966.53;4978705;28;20465;-68
2022/03/25 02:12:45;;;;;;;23.63;12.73;;;;;;;-2.24;100.00;101971.41;4960038;28;20997;-68
2022/03/25 02:15:12;;;;;;;21.67;12.23;;;;;;;-2.32;100.00;101968.50;4962075;28;20502;-68
2022/03/25 02:17:40;;;;;;;19.50;11.47;;;;;;;-2.17;100.00;101976.00;4960189;28;20508;-68
2022/03/25 02:20:10;;;;;;;24.33;13.10;;;;;;;-1.98;100.00;101959.88;4965421;28;20509;-68
2022/03/25 02:22:39;;;;;;;23.43;11.87;;;;;;;-2.22;100.00;101976.59;4954076;28;20471;-68
2022/03/25 02:25:09;;;;;;;23.27;12.60;;;;;;;-2.31;100.00;101966.81;4963473;28;21125;-68
2022/03/25 02:27:37;;;;;;;24.20;12.83;;;;;;;-2.38;100.00;101968.19;4965362;28;20457;-67
2022/03/25 02:30:07;;;;;;;28.50;13.63;;;;;;;-2.45;100.00;101972.94;4955829;28;20494;-68
2022/03/25 02:32:34;;;;;;;29.40;13.67;;;;;;;-2.58;100.00;101976.59;4962445;28;20990;-67
2022/03/25 02:35:01;;;;;;;24.50;13.23;;;;;;;-2.54;100.00;101971.69;4982922;28;21015;-68
2022/03/25 02:37:27;;;;;;;24.87;12.60;;;;;;;-2.51;100.00;101974.41;4979979;28;20513;-68
2022/03/25 02:39:55;;;;;;;20.80;12.47;;;;;;;-2.43;100.00;101979.00;4964581;28;20482;-68
2022/03/25 02:42:22;;;;;;;21.23;12.70;;;;;;;-2.49;100.00;101975.34;4960878;28;20464;-67
2022/03/25 02:44:49;;;;;;;25.50;13.53;;;;;;;-2.60;100.00;101971.41;4963817;28;20467;-68
2022/03/25 02:47:16;;;;;;;27.47;13.47;;;;;;;-2.25;100.00;101966.22;4964038;28;20459;-67
2022/03/25 02:49:42;;;;;;;25.87;13.10;;;;;;;-2.36;100.00;101970.84;4964944;28;20579;-67
2022/03/25 02:52:08;;;;;;;26.13;13.00;;;;;;;-2.62;100.00;101978.13;4977942;28;20713;-68
2022/03/25 02:54:35;;;;;;;27.23;12.53;;;;;;;-2.57;100.00;101974.13;4981743;28;21001;-68
2022/03/25 02:57:03;;;;;;;24.83;13.57;;;;;;;-2.61;100.00;101979.00;4981427;28;20476;-68
2022/03/25 02:59:29;;;;;;;21.67;11.77;;;;;;;-2.65;100.00;101969.44;4982671;28;21010;-68
2022/03/25 03:01:56;;;;;;;30.70;14.57;;;;;;;-2.51;100.00;101966.75;4978673;28;20464;-68
2022/03/25 03:04:22;;;;;;;26.87;14.33;;;;;;;-2.38;100.00;101978.41;4978767;28;20467;-67
2022/03/25 03:06:49;;;;;;;24.50;13.50;;;;;;;-2.33;100.00;101974.41;4977974;28;20544;-67
2022/03/25 03:09:15;;;;;;;23.00;12.57;;;;;;;-2.28;100.00;101969.53;4981595;28;20489;-67
2022/03/25 03:11:43;;;;;;;24.27;13.17;;;;;;;-2.44;100.00;101974.72;4976462;28;20528;-68
2022/03/25 03:14:10;;;;;;;27.47;12.97;;;;;;;-2.57;100.00;101973.22;4980094;28;20471;-67
2022/03/25 03:16:37;;;;;;;25.10;12.87;;;;;;;-2.65;100.00;101980.50;4979842;28;20785;-68
2022/03/25 03:19:04;;;;;;;22.33;12.60;;;;;;;-2.67;100.00;101983.00;4978347;28;20497;-68
2022/03/25 03:21:32;;;;;;;26.57;13.43;;;;;;;-2.80;100.00;101979.75;4980168;28;20469;-68
2022/03/25 03:23:59;;;;;;;26.73;13.13;;;;;;;-2.73;100.00;101984.34;4981774;28;20454;-68
2022/03/25 03:26:25;;;;;;;21.30;12.90;;;;;;;-2.64;100.00;101983.94;4978556;28;20501;-68
2022/03/25 03:28:51;;;;;;;20.67;12.50;;;;;;;-2.78;100.00;101988.34;4980913;28;20511;-68
2022/03/25 03:31:19;;;;;;;25.87;13.43;;;;;;;-2.68;100.00;101985.47;4984159;28;20992;-68
2022/03/25 03:33:46;;;;;;;27.57;14.53;;;;;;;-2.70;100.00;101980.28;4981422;28;20465;-68
2022/03/25 03:36:12;;;;;;;27.87;13.90;;;;;;;-2.92;100.00;101983.44;4985892;28;20465;-68
2022/03/25 03:38:38;;;;;;;26.83;13.13;;;;;;;-2.54;100.00;101992.13;4979293;28;20501;-68
2022/03/25 03:41:05;;;;;;;23.87;13.37;;;;;;;-2.68;100.00;101990.56;4981922;28;20482;-68
2022/03/25 03:43:31;;;;;;;27.93;13.93;;;;;;;-2.86;100.00;101987.97;4980029;28;21801;-68
2022/03/25 03:45:57;;;;;;;27.37;12.73;;;;;;;-2.94;100.00;101985.03;4983753;28;20460;-68
2022/03/25 03:48:25;;;;;;;26.83;14.07;;;;;;;-2.87;100.00;101984.56;4981544;28;20480;-68
2022/03/25 03:50:51;;;;;;;28.70;12.77;;;;;;;-3.06;100.00;101990.41;4983990;28;20460;-68
2022/03/25 03:53:17;;;;;;;34.27;14.30;;;;;;;-3.05;100.00;101994.69;4979650;28;20476;-68
2022/03/25 03:55:44;;;;;;;26.70;13.47;;;;;;;-3.12;100.00;101994.31;4981442;28;20464;-68
2022/03/25 03:58:10;;;;;;;27.70;13.23;;;;;;;-2.89;100.00;101991.25;4981913;28;20484;-68
2022/03/25 04:00:37;;;;;;;26.67;13.37;;;;;;;-2.74;100.00;101991.16;4983547;28;20463;-68
2022/03/25 04:03:03;;;;;;;25.43;13.57;;;;;;;-2.69;100.00;101984.59;4982712;28;20579;-68
2022/03/25 04:05:31;;;;;;;28.00;14.10;;;;;;;-2.67;100.00;101987.22;4984321;28;20448;-68
2022/03/25 04:07:57;;;;;;;25.40;13.33;;;;;;;-2.79;100.00;101990.03;4982383;28;20460;-68
2022/03/25 04:10:23;;;;;;;25.63;13.80;;;;;;;-2.97;100.00;101992.53;4980302;28;20480;-68
2022/03/25 04:12:50;;;;;;;26.87;13.00;;;;;;;-3.05;100.00;101991.28;4982690;28;20468;-68
2022/03/25 04:15:16;;;;;;;26.93;13.40;;;;;;;-3.05;100.00;101992.13;4981875;28;21312;-68
2022/03/25 04:17:45;;;;;;;27.97;14.17;;;;;;;-2.78;100.00;101989.25;4984014;28;20491;-68
2022/03/25 04:20:13;;;;;;;27.47;12.40;;;;;;;-2.96;100.00;101993.41;4982038;28;20473;-68
2022/03/25 04:22:41;;;;;;;25.77;13.07;;;;;;;-2.86;100.00;101993.09;4983169;28;20467;-68
2022/03/25 04:25:08;;;;;;;25.03;12.80;;;;;;;-3.05;100.00;102002.34;4980764;28;20458;-68
2022/03/25 04:27:35;;;;;;;28.27;13.47;;;;;;;-3.14;100.00;101998.47;4982443;28;20558;-68
2022/03/25 04:30:01;;;;;;;28.23;13.00;;;;;;;-3.07;100.00;101998.84;4979700;28;20543;-68
2022/03/25 04:32:28;;;;;;;25.67;13.20;;;;;;;-3.17;100.00;102004.25;4981884;28;20638;-68
2022/03/25 04:34:54;;;;;;;26.47;13.17;;;;;;;-3.07;100.00;102000.53;4980117;28;21062;-68
2022/03/25 04:37:20;;;;;;;29.47;13.73;;;;;;;-3.05;100.00;102009.13;4981598;28;20989;-68
2022/03/25 04:39:48;;;;;;;25.97;12.60;;;;;;;-3.06;100.00;102008.25;4978613;28;20480;-68
2022/03/25 04:42:14;;;;;;;25.93;13.30;;;;;;;-3.10;100.00;102008.88;4985633;28;20465;-68
2022/03/25 04:44:41;;;;;;;24.40;14.17;;;;;;;-3.17;100.00;102005.94;4982083;28;20456;-68
2022/03/25 04:47:07;;;;;;;24.43;13.17;;;;;;;-3.17;100.00;102017.03;4978053;28;20464;-68
2022/03/25 04:49:34;;;;;;;30.47;13.40;;;;;;;-3.24;100.00;102014.94;4971355;28;20587;-68
2022/03/25 04:52:00;;;;;;;23.90;13.40;;;;;;;-2.90;100.00;102020.13;4983052;28;20500;-68
2022/03/25 04:54:27;;;;;;;24.30;13.20;;;;;;;-2.87;100.00;102010.09;4977380;28;20472;-67
2022/03/25 04:56:55;;;;;;;35.07;14.30;;;;;;;-3.18;100.00;102016.94;4983025;28;20460;-68
2022/03/25 04:59:21;;;;;;;25.17;13.27;;;;;;;-3.35;100.00;102014.38;4981712;28;20483;-68
2022/03/25 05:01:47;;;;;;;24.63;14.33;;;;;;;-3.31;100.00;102020.53;4976394;28;20978;-68
2022/03/25 05:04:14;;;;;;;24.80;14.13;;;;;;;-3.37;100.00;102022.78;4982707;28;20469;-68
2022/03/25 05:06:40;;;;;;;28.20;13.83;;;;;;;-3.00;100.00;102024.69;4982277;28;20460;-68
2022/03/25 05:09:06;;;;;;;30.43;14.63;;;;;;;-2.89;100.00;102026.97;4977085;28;20492;-68
2022/03/25 05:11:33;;;;;;;24.80;13.40;;;;;;;-3.14;100.00;102026.53;4976138;28;20476;-68
2022/03/25 05:14:00;;;;;;;23.50;12.67;;;;;;;-3.13;100.00;102028.25;4980099;28;20628;-68
2022/03/25 05:16:27;;;;;;;31.40;14.87;;;;;;;-2.98;100.00;102030.75;4979644;28;20467;-68
2022/03/25 05:18:53;;;;;;;26.20;13.67;;;;;;;-2.97;100.00;102038.50;4983638;28;21016;-68
2022/03/25 05:21:19;;;;;;;27.27;14.77;;;;;;;-3.15;100.00;102030.75;4979009;28;20469;-68
2022/03/25 05:23:46;;;;;;;30.20;14.13;;;;;;;-2.91;100.00;102037.91;4981751;28;20591;-68
2022/03/25 05:26:12;;;;;;;30.80;14.93;;;;;;;-2.93;100.00;102035.28;4978395;28;20469;-68
2022/03/25 05:28:38;;;;;;;26.93;14.13;;;;;;;-2.90;100.00;102034.59;4979212;28;20491;-68
2022/03/25 05:31:06;;;;;;;27.13;14.23;;;;;;;-2.82;100.00;102042.63;4978521;28;20825;-68
2022/03/25 05:33:32;;;;;;;31.90;15.50;;;;;;;-2.92;100.00;102052.38;4948733;28;21033;-68
2022/03/25 05:35:59;;;;;;;29.17;13.77;;;;;;;-2.51;100.00;102045.91;4954967;28;20471;-69
2022/03/25 05:38:25;;;;;;;29.50;14.67;;;;;;;-2.67;100.00;102051.06;4952806;28;20839;-68
2022/03/25 05:40:51;;;;;;;27.10;14.43;;;;;;;-2.78;100.00;102054.72;4956930;28;21032;-68
2022/03/25 05:43:18;;;;;;;30.87;14.87;;;;;;;-2.58;100.00;102050.66;4958829;28;20934;-68
2022/03/25 05:45:45;;;;;;;27.07;14.77;;;;;;;-2.50;100.00;102057.00;4952893;28;20567;-68
2022/03/25 05:48:12;;;;;;;30.53;14.47;;;;;;;-2.48;100.00;102057.94;4957119;28;20545;-68
2022/03/25 05:50:39;;;;;;;24.93;13.63;;;;;;;-2.48;100.00;102057.94;4960360;28;20485;-68
2022/03/25 05:53:06;;;;;;;27.90;13.60;;;;;;;-2.36;100.00;102065.34;4961724;28;20461;-67
2022/03/25 05:55:32;;;;;;;26.97;13.63;;;;;;;-2.24;100.00;102063.41;4955411;28;20502;-68
2022/03/25 05:57:59;;;;;;;31.27;14.43;;;;;;;-2.28;100.00;102059.81;4956602;28;21046;-68
2022/03/25 06:00:25;;;;;;;33.50;14.00;;;;;;;-2.41;100.00;102062.59;4951240;28;20473;-68
2022/03/25 06:02:51;;;;;;;33.47;14.80;;;;;;;-2.41;100.00;102062.59;4944565;28;20473;-68
2022/03/25 06:05:19;;;;;;;26.77;13.63;;;;;;;-2.35;100.00;102062.88;4951774;28;20474;-68
2022/03/25 06:07:46;;;;;;;27.37;14.13;;;;;;;-2.12;100.00;102073.38;4957778;28;20850;-68
2022/03/25 06:10:15;;;;;;;23.40;12.97;;;;;;;-1.99;100.00;102067.16;4960893;28;20455;-68
2022/03/25 06:12:41;;;;;;;25.97;14.00;;;;;;;-1.83;100.00;102068.75;4958362;28;20828;-68
2022/03/25 06:15:09;;;;;;;31.30;14.93;;;;;;;-1.54;100.00;102060.78;4959101;28;20910;-67
2022/03/25 06:17:41;;;;;;;26.60;14.10;;;;;;;-1.38;100.00;102064.06;4953651;28;20553;-68
2022/03/25 06:20:09;;;;;;;28.77;15.53;;;;;;;-1.34;100.00;102060.81;4959409;28;20586;-68
2022/03/25 06:22:39;;;;;;;31.20;16.13;;;;;;;-1.21;100.00;102052.03;4955708;28;20474;-68
2022/03/25 06:25:07;;;;;;;33.33;15.47;;;;;;;-1.28;100.00;102056.00;4954134;28;20468;-68
2022/03/25 06:27:34;;;;;;;32.33;15.30;;;;;;;-1.13;100.00;102063.47;4949264;28;20467;-68
2022/03/25 06:30:00;;;;;;;35.43;16.87;;;;;;;-0.93;100.00;102061.81;4956100;28;20486;-68
2022/03/25 06:32:26;;;;;;;32.67;16.43;;;;;;;-0.98;100.00;102063.28;4955380;28;20825;-68
2022/03/25 06:34:53;;;;;;;32.33;16.33;;;;;;;-0.99;100.00;102072.63;4958218;28;21009;-68
2022/03/25 06:37:19;;;;;;;35.67;17.00;;;;;;;-0.82;100.00;102077.63;4956716;28;20878;-68
2022/03/25 06:39:47;;;;;;;37.53;16.80;;;;;;;-0.74;100.00;102073.69;4959979;28;20851;-68
2022/03/25 06:42:13;;;;;;;37.00;17.10;;;;;;;-0.65;100.00;102074.13;4956204;28;20468;-68
2022/03/25 06:44:40;;;;;;;31.07;16.27;;;;;;;-0.63;100.00;102076.75;4960007;28;20472;-68
2022/03/25 06:47:06;;;;;;;31.40;16.23;;;;;;;-0.50;100.00;102083.28;4957403;28;20692;-68
2022/03/25 06:49:33;;;;;;;30.67;16.50;;;;;;;-0.25;100.00;102077.47;4955925;28;20485;-68
2022/03/25 06:52:00;;;;;;;30.60;15.80;;;;;;;-0.22;100.00;102075.91;4958184;28;20471;-68
2022/03/25 06:54:27;;;;;;;29.20;15.93;;;;;;;-0.06;100.00;102090.22;4953169;28;20466;-68
2022/03/25 06:56:55;;;;;;;36.00;18.77;;;;;;;-0.06;100.00;102097.06;4959053;28;20223;-68
2022/03/25 06:59:23;;;;;;;32.67;17.40;;;;;;;0.09;100.00;102087.44;4956297;28;20481;-68
2022/03/25 07:01:50;;;;;;;31.00;15.83;;;;;;;0.19;100.00;102083.53;4958565;28;20331;-68
2022/03/25 07:04:16;;;;;;;30.53;16.80;;;;;;;0.30;100.00;102082.28;4961816;28;20217;-68
2022/03/25 07:06:45;;;;;;;48.30;28.53;;;;;;;0.38;100.00;102088.56;4964173;28;20221;-68
2022/03/25 07:09:11;;;;;;;54.30;29.13;;;;;;;0.54;100.00;102092.59;4962537;28;20225;-69
2022/03/25 07:11:38;;;;;;;30.77;19.53;;;;;;;0.63;100.00;102089.50;4965129;28;20983;-69
2022/03/25 07:14:06;;;;;;;32.60;18.63;;;;;;;0.77;100.00;102091.72;4960744;28;20444;-68
2022/03/25 07:16:33;;;;;;;31.80;18.60;;;;;;;0.89;100.00;102099.91;4963723;28;20212;-68
2022/03/25 07:19:00;;;;;;;32.00;17.07;;;;;;;0.97;100.00;102103.63;4961939;28;20224;-68
2022/03/25 07:21:26;;;;;;;28.37;16.60;;;;;;;1.09;100.00;102105.75;4964674;28;20276;-68
2022/03/25 07:23:53;;;;;;;31.80;16.90;;;;;;;1.23;100.00;102107.16;4961101;28;20237;-68
2022/03/25 07:26:19;;;;;;;35.33;17.37;;;;;;;1.31;100.00;102118.56;4961926;28;20206;-69
2022/03/25 07:28:45;;;;;;;26.40;15.40;;;;;;;1.46;100.00;102115.66;4962681;28;20229;-69
2022/03/25 07:31:13;;;;;;;28.23;16.47;;;;;;;1.59;100.00;102119.53;4964576;28;20237;-68
2022/03/25 07:33:40;;;;;;;32.90;17.10;;;;;;;1.74;100.00;102120.88;4959356;28;20210;-69
2022/03/25 07:36:07;;;;;;;31.07;16.83;;;;;;;1.93;100.00;102122.38;4964928;28;20233;-68
2022/03/25 07:38:33;;;;;;;28.70;15.87;;;;;;;2.03;100.00;102120.16;4959200;28;20215;-68
2022/03/25 07:41:00;;;;;;;31.40;15.73;;;;;;;2.19;100.00;102129.25;4963381;28;20198;-68
2022/03/25 07:43:26;;;;;;;31.53;16.43;;;;;;;2.32;100.00;102129.63;4962599;28;20207;-68
2022/03/25 07:45:52;;;;;;;34.27;17.00;;;;;;;2.45;100.00;102130.09;4966927;28;20731;-68
2022/03/25 07:48:20;;;;;;;33.97;17.57;;;;;;;2.62;99.65;102146.06;4962042;28;20224;-68
2022/03/25 07:50:47;;;;;;;26.83;15.67;;;;;;;2.83;99.30;102143.28;4965433;28;20209;-68
2022/03/25 07:53:13;;;;;;;28.90;16.60;;;;;;;2.98;99.25;102139.38;4964348;28;20222;-68
2022/03/25 07:55:40;;;;;;;31.93;16.77;;;;;;;3.14;96.67;102148.44;4964547;28;20595;-68
2022/03/25 07:58:07;;;;;;;27.00;16.00;;;;;;;3.31;95.99;102157.53;4960313;28;20229;-69
2022/03/25 08:00:33;;;;;;;31.00;15.87;;;;;;;3.39;95.64;102150.00;4958337;28;20225;-68
2022/03/25 08:02:59;;;;;;;26.43;16.10;;;;;;;3.55;95.96;102157.34;4964623;28;20738;-68
2022/03/25 08:05:27;;;;;;;29.27;16.50;;;;;;;3.72;95.37;102151.75;4962651;28;20217;-68
2022/03/25 08:07:55;;;;;;;32.57;16.30;;;;;;;3.97;92.22;102161.91;4964095;28;20214;-69
2022/03/25 08:10:23;;;;;;;34.50;16.97;;;;;;;4.10;92.46;102164.78;4961560;28;20205;-69
2022/03/25 08:12:50;;;;;;;29.40;16.00;;;;;;;4.27;92.88;102157.44;4963912;28;20645;-68
2022/03/25 08:15:17;;;;;;;25.47;15.93;;;;;;;4.43;91.56;102169.00;4960834;28;20213;-69
2022/03/25 08:17:48;;;;;;;28.17;15.33;;;;;;;4.63;89.18;102162.59;4963498;28;20742;-68
2022/03/25 08:20:19;;;;;;;28.30;15.93;;;;;;;4.78;90.18;102176.72;4964470;28;20656;-69
2022/03/25 08:22:47;;;;;;;29.37;15.80;;;;;;;4.99;87.24;102187.50;4966803;28;20202;-69
2022/03/25 08:28:00;;;;;;;28.10;16.10;;;;;;;5.30;84.38;102186.47;4962651;28;20690;-69
2022/03/25 08:30:26;;;;;;;30.90;15.53;;;;;;;5.49;80.99;102195.47;4958094;28;20221;-68
2022/03/25 08:32:53;;;;;;;27.63;14.73;;;;;;;5.69;81.15;102197.56;4966161;28;20221;-68
2022/03/25 08:35:19;;;;;;;26.07;14.00;;;;;;;5.88;79.30;102197.06;4957221;28;20559;-68
2022/03/25 08:37:47;;;;;;;25.80;14.53;;;;;;;6.14;77.54;102196.72;4959574;28;20255;-68
2022/03/25 08:40:13;;;;;;;27.27;14.40;;;;;;;6.29;73.69;102205.56;4960456;28;20269;-69
2022/03/25 08:42:40;;;;;;;25.63;14.87;;;;;;;6.40;73.17;102198.84;4953907;28;20584;-69
2022/03/25 08:45:07;;;;;;;27.07;14.90;;;;;;;6.59;73.77;102195.69;4959784;28;20206;-68
2022/03/25 08:47:34;;;;;;;28.80;15.50;;;;;;;6.83;74.65;102199.50;4958060;28;20684;-68
2022/03/25 08:50:00;;;;;;;31.00;16.13;;;;;;;6.97;74.19;102203.16;4959643;28;20780;-69
2022/03/25 08:52:27;;;;;;;29.77;16.27;;;;;;;7.12;73.83;102199.03;4964310;28;20251;-69
2022/03/25 08:54:54;;;;;;;25.67;15.27;;;;;;;7.33;72.90;102203.63;4956462;28;20573;-68
2022/03/25 08:57:20;;;;;;;29.90;16.20;;;;;;;7.52;70.86;102207.31;4958865;28;20217;-69
2022/03/25 08:59:48;;;;;;;29.17;17.67;;;;;;;7.62;67.60;102206.59;4962907;28;20236;-67
2022/03/25 09:02:14;;;;;;;31.00;16.33;;;;;;;7.74;69.71;102198.94;4959894;28;20209;-69
2022/03/25 09:04:41;;;;;;;30.60;16.87;;;;;;;7.93;69.59;102199.09;4958146;28;20525;-69
2022/03/25 09:07:07;;;;;;;29.83;18.00;;;;;;;8.07;69.59;102199.25;4962704;28;20552;-68
2022/03/25 09:09:34;;;;;;;31.97;18.97;;;;;;;8.17;69.55;102206.28;4963619;28;20718;-69
2022/03/25 09:12:02;;;;;;;30.33;18.40;;;;;;;8.35;69.63;102200.34;4961695;28;20202;-69
2022/03/25 09:14:28;;;;;;;33.80;19.80;;;;;;;8.56;67.86;102204.03;4962405;28;20221;-69
2022/03/25 09:16:54;;;;;;;30.83;18.27;;;;;;;8.74;64.32;102200.66;4958092;28;20590;-69
2022/03/25 09:19:21;;;;;;;37.90;20.53;;;;;;;8.87;62.14;102215.50;4956824;28;20221;-68
2022/03/25 09:21:47;;;;;;;40.10;20.37;;;;;;;8.97;62.00;102212.09;4958258;28;20206;-69
2022/03/25 09:24:13;;;;;;;38.70;21.50;;;;;;;9.16;60.63;102209.59;4964171;28;20206;-69
2022/03/25 09:26:40;;;;;;;39.50;20.60;;;;;;;9.35;57.16;102214.00;4959790;28;20208;-69
2022/03/25 09:29:08;;;;;;;33.23;19.57;;;;;;;9.46;59.02;102212.34;4963094;28;20244;-68
2022/03/25 09:31:34;;;;;;;41.70;21.23;;;;;;;9.52;59.32;102210.63;4959267;28;20548;-68
2022/03/25 09:36:41;;;;;;;34.30;21.27;;;;;;;9.92;55.90;102210.72;4958045;28;20353;-69
2022/03/25 09:39:08;;;;;;;36.57;21.37;;;;;;;9.93;55.15;102215.94;4961387;28;20243;-69
2022/03/25 09:41:36;;;;;;;39.03;21.73;;;;;;;10.00;56.10;102220.28;4960127;28;20309;-69
2022/03/25 09:44:04;;;;;;;37.40;21.10;;;;;;;10.10;56.51;102212.50;4962503;28;20215;-69
2022/03/25 09:46:31;;;;;;;35.07;20.27;;;;;;;10.29;56.57;102205.53;4956017;28;20204;-69
2022/03/25 09:48:58;;;;;;;41.87;23.83;;;;;;;10.37;54.42;102209.06;4962073;28;20226;-69
2022/03/25 09:51:24;;;;;;;41.00;22.10;;;;;;;10.52;54.29;102210.81;4957964;28;20199;-69
2022/03/25 09:53:51;;;;;;;39.93;23.07;;;;;;;10.64;52.36;102221.22;4961801;28;20593;-67
2022/03/25 09:56:17;;;;;;;39.27;22.50;;;;;;;10.78;52.18;102214.25;4955630;28;20221;-69
2022/03/25 09:58:43;;;;;;;40.57;23.13;;;;;;;10.96;54.06;102215.09;4964310;28;20229;-69
2022/03/25 10:01:10;;;;;;;39.47;22.20;;;;;;;11.12;52.97;102221.13;4958806;28;20323;-69
2022/03/25 10:03:40;;;;;;;43.10;23.57;;;;;;;11.21;52.44;102212.41;4961459;28;20218;-69
2022/03/25 10:06:10;;;;;;;40.93;22.63;;;;;;;11.29;53.91;102205.38;4959201;28;20212;-69
2022/03/25 10:08:38;;;;;;;38.43;21.73;;;;;;;11.39;53.09;102214.06;4958844;28;20238;-68
2022/03/25 10:11:24;;;;;;;38.83;21.57;;;;;;;11.53;51.79;102210.50;4959965;28;20206;-69
2022/03/25 10:14:14;;;;;;;37.83;22.60;;;;;;;11.58;51.91;102210.50;4963507;28;20309;-68
2022/03/25 10:16:42;;;;;;;41.10;22.27;;;;;;;11.54;51.72;102203.56;4958779;28;21033;-69
2022/03/25 10:19:10;;;;;;;33.10;20.60;;;;;;;11.54;52.54;102208.78;4964686;28;20222;-69
2022/03/25 10:21:51;;;;;;;35.97;20.63;;;;;;;11.62;52.00;102206.13;4961783;28;20218;-69
2022/03/25 10:24:18;;;;;;;35.83;20.43;;;;;;;11.65;51.25;102206.97;4959576;28;20205;-69
2022/03/25 10:26:45;;;;;;;36.60;20.83;;;;;;;11.65;50.29;102212.19;4961771;28;20268;-69
2022/03/25 10:29:21;;;;;;;38.77;20.93;;;;;;;11.73;50.37;102193.84;4959296;28;20723;-69
2022/03/25 10:32:09;;;;;;;34.70;20.20;;;;;;;11.98;49.88;102198.94;4962670;28;20222;-69
2022/03/25 10:34:37;;;;;;;36.27;21.90;;;;;;;12.09;49.13;102199.75;4959397;28;20337;-69
2022/03/25 10:37:06;;;;;;;32.93;19.77;;;;;;;12.12;49.07;102194.53;4958269;28;20211;-68
2022/03/25 10:39:33;;;;;;;31.97;19.57;;;;;;;12.20;50.00;102195.31;4958338;28;20224;-69
2022/03/25 10:42:01;;;;;;;41.40;21.83;;;;;;;12.30;50.58;102193.50;4949789;28;20215;-69
2022/03/25 10:44:36;;;;;;;36.77;21.50;;;;;;;12.32;50.86;102199.56;4960200;28;20211;-69
2022/03/25 10:47:23;;;;;;;38.90;20.50;;;;;;;12.41;49.33;102190.78;4959998;28;20218;-69
2022/03/25 10:49:52;;;;;;;34.93;21.03;;;;;;;12.46;50.35;102189.84;4963188;28;20213;-69
2022/03/25 10:52:30;;;;;;;40.07;21.80;;;;;;;12.58;50.72;102182.78;4956462;28;20215;-69
2022/03/25 10:55:19;;;;;;;39.30;21.27;;;;;;;12.54;50.81;102179.34;4965872;28;20208;-69
2022/03/25 10:57:53;;;;;;;40.30;21.90;;;;;;;12.53;50.06;102176.72;4954307;28;20217;-68
2022/03/25 11:00:20;;;;;;;40.33;22.57;;;;;;;12.57;51.07;102179.28;4955871;28;20230;-69
2022/03/25 11:02:46;;;;;;;38.83;22.97;;;;;;;12.75;49.35;102177.38;4957825;28;20208;-69
2022/03/25 11:05:15;;;;;;;39.67;22.30;;;;;;;12.86;49.13;102184.22;4959142;28;20364;-69
2022/03/25 11:07:43;;;;;;;35.97;21.47;;;;;;;12.85;49.02;102177.25;4953010;28;20211;-69
2022/03/25 11:10:12;;;;;;;37.53;21.87;;;;;;;12.95;49.91;102172.78;4958219;28;20370;-69